sensor_id;sensor_type;location;lat;lon;timestamp;pressure;altitude;pressure_sealevel;temperature;humidity
74336;BME280;62755;-33.398;-70.572;2023-01-09T00:01:14;93065.44;;;27.00;39.95
74336;BME280;62755;-33.398;-70.572;2023-01-09T00:04:04;93058.81;;;27.09;40.14
74336;BME280;62755;-33.398;-70.572;2023-01-09T00:06:53;93065.53;;;26.89;40.91
74336;BME280;62755;-33.398;-70.572;2023-01-09T00:09:43;93077.66;;;26.80;41.02
74336;BME280;62755;-33.398;-70.572;2023-01-09T00:12:32;93072.72;;;26.68;40.98
74336;BME280;62755;-33.398;-70.572;2023-01-09T00:15:22;93070.69;;;26.74;40.93
74336;BME280;62755;-33.398;-70.572;2023-01-09T00:18:13;93081.22;;;26.70;41.03
74336;BME280;62755;-33.398;-70.572;2023-01-09T00:21:04;93080.03;;;26.60;41.18
74336;BME280;62755;-33.398;-70.572;2023-01-09T00:23:54;93087.84;;;26.56;41.00
74336;BME280;62755;-33.398;-70.572;2023-01-09T00:26:43;93090.31;;;26.59;41.49
74336;BME280;62755;-33.398;-70.572;2023-01-09T00:29:33;93084.50;;;26.39;41.22
74336;BME280;62755;-33.398;-70.572;2023-01-09T00:32:22;93090.75;;;26.39;41.31
74336;BME280;62755;-33.398;-70.572;2023-01-09T00:35:15;93099.09;;;26.23;41.35
74336;BME280;62755;-33.398;-70.572;2023-01-09T00:38:05;93097.28;;;26.31;41.32
74336;BME280;62755;-33.398;-70.572;2023-01-09T00:40:55;93073.59;;;26.28;41.09
74336;BME280;62755;-33.398;-70.572;2023-01-09T00:43:47;93092.09;;;26.57;40.91
74336;BME280;62755;-33.398;-70.572;2023-01-09T00:46:40;93085.13;;;26.50;41.10
74336;BME280;62755;-33.398;-70.572;2023-01-09T00:49:33;93097.34;;;26.55;41.27
74336;BME280;62755;-33.398;-70.572;2023-01-09T00:52:25;93102.09;;;26.25;41.69
74336;BME280;62755;-33.398;-70.572;2023-01-09T00:55:15;93090.28;;;25.94;42.20
74336;BME280;62755;-33.398;-70.572;2023-01-09T00:58:04;93104.91;;;26.49;41.31
74336;BME280;62755;-33.398;-70.572;2023-01-09T01:00:54;93102.19;;;26.14;42.28
74336;BME280;62755;-33.398;-70.572;2023-01-09T01:03:43;93100.66;;;26.13;41.76
74336;BME280;62755;-33.398;-70.572;2023-01-09T01:06:33;93095.53;;;25.92;42.16
74336;BME280;62755;-33.398;-70.572;2023-01-09T01:09:40;93105.06;;;25.86;42.75
74336;BME280;62755;-33.398;-70.572;2023-01-09T01:12:30;93101.88;;;25.76;42.62
74336;BME280;62755;-33.398;-70.572;2023-01-09T01:15:20;93110.78;;;25.88;42.41
74336;BME280;62755;-33.398;-70.572;2023-01-09T01:18:10;93103.13;;;25.75;42.92
74336;BME280;62755;-33.398;-70.572;2023-01-09T01:20:59;93103.38;;;26.18;42.29
74336;BME280;62755;-33.398;-70.572;2023-01-09T01:23:49;93093.13;;;26.19;42.07
74336;BME280;62755;-33.398;-70.572;2023-01-09T01:26:40;93100.84;;;26.26;41.96
74336;BME280;62755;-33.398;-70.572;2023-01-09T01:29:29;93109.06;;;25.85;42.56
74336;BME280;62755;-33.398;-70.572;2023-01-09T01:32:18;93108.84;;;25.77;42.56
74336;BME280;62755;-33.398;-70.572;2023-01-09T01:35:09;93106.53;;;25.92;42.41
74336;BME280;62755;-33.398;-70.572;2023-01-09T01:37:58;93102.25;;;25.51;43.45
74336;BME280;62755;-33.398;-70.572;2023-01-09T01:40:52;93109.50;;;25.48;43.14
74336;BME280;62755;-33.398;-70.572;2023-01-09T01:43:55;93097.03;;;25.47;43.14
74336;BME280;62755;-33.398;-70.572;2023-01-09T01:46:44;93109.03;;;25.33;43.43
74336;BME280;62755;-33.398;-70.572;2023-01-09T01:49:33;93111.50;;;25.42;43.51
74336;BME280;62755;-33.398;-70.572;2023-01-09T01:52:23;93112.03;;;25.35;43.70
74336;BME280;62755;-33.398;-70.572;2023-01-09T01:55:13;93108.81;;;25.20;43.89
74336;BME280;62755;-33.398;-70.572;2023-01-09T01:58:05;93109.53;;;25.26;43.34
74336;BME280;62755;-33.398;-70.572;2023-01-09T02:00:58;93107.53;;;25.43;43.02
74336;BME280;62755;-33.398;-70.572;2023-01-09T02:03:47;93106.84;;;25.15;43.70
74336;BME280;62755;-33.398;-70.572;2023-01-09T02:06:38;93106.41;;;24.83;44.55
74336;BME280;62755;-33.398;-70.572;2023-01-09T02:09:28;93101.63;;;24.95;44.32
74336;BME280;62755;-33.398;-70.572;2023-01-09T02:12:19;93101.38;;;25.04;44.28
74336;BME280;62755;-33.398;-70.572;2023-01-09T02:15:12;93107.63;;;25.10;43.82
74336;BME280;62755;-33.398;-70.572;2023-01-09T02:18:24;93094.78;;;25.35;43.71
74336;BME280;62755;-33.398;-70.572;2023-01-09T02:21:22;93083.69;;;24.94;44.24
74336;BME280;62755;-33.398;-70.572;2023-01-09T02:30:49;93092.91;;;24.91;44.24
74336;BME280;62755;-33.398;-70.572;2023-01-09T02:33:51;93098.66;;;24.93;44.28
74336;BME280;62755;-33.398;-70.572;2023-01-09T02:36:49;93096.44;;;24.86;44.41
74336;BME280;62755;-33.398;-70.572;2023-01-09T02:39:49;93093.22;;;24.49;45.02
74336;BME280;62755;-33.398;-70.572;2023-01-09T02:42:41;93090.44;;;24.65;45.01
74336;BME280;62755;-33.398;-70.572;2023-01-09T02:45:32;93100.16;;;24.94;44.38
74336;BME280;62755;-33.398;-70.572;2023-01-09T02:48:23;93094.19;;;24.79;44.45
74336;BME280;62755;-33.398;-70.572;2023-01-09T02:51:19;93095.16;;;24.87;44.31
74336;BME280;62755;-33.398;-70.572;2023-01-09T02:54:21;93090.97;;;24.80;44.43
74336;BME280;62755;-33.398;-70.572;2023-01-09T02:57:26;93062.53;;;24.67;44.25
74336;BME280;62755;-33.398;-70.572;2023-01-09T03:00:27;93086.72;;;24.29;45.47
74336;BME280;62755;-33.398;-70.572;2023-01-09T03:03:25;93080.47;;;24.51;45.05
74336;BME280;62755;-33.398;-70.572;2023-01-09T03:06:21;93086.72;;;24.52;45.16
74336;BME280;62755;-33.398;-70.572;2023-01-09T03:09:15;93077.75;;;24.57;44.89
74336;BME280;62755;-33.398;-70.572;2023-01-09T03:12:10;93078.00;;;24.64;44.73
74336;BME280;62755;-33.398;-70.572;2023-01-09T03:15:02;93075.25;;;24.59;44.76
74336;BME280;62755;-33.398;-70.572;2023-01-09T03:17:55;93081.25;;;24.52;45.08
74336;BME280;62755;-33.398;-70.572;2023-01-09T03:20:47;93082.72;;;24.41;45.13
74336;BME280;62755;-33.398;-70.572;2023-01-09T03:23:48;93077.75;;;24.57;44.93
74336;BME280;62755;-33.398;-70.572;2023-01-09T03:26:38;93053.59;;;24.11;45.43
74336;BME280;62755;-33.398;-70.572;2023-01-09T03:29:28;93073.72;;;23.91;46.15
74336;BME280;62755;-33.398;-70.572;2023-01-09T03:32:17;93074.28;;;24.28;45.45
74336;BME280;62755;-33.398;-70.572;2023-01-09T03:35:08;93076.25;;;24.33;45.09
74336;BME280;62755;-33.398;-70.572;2023-01-09T03:37:59;93069.56;;;24.29;45.50
74336;BME280;62755;-33.398;-70.572;2023-01-09T03:40:48;93067.28;;;24.27;45.63
74336;BME280;62755;-33.398;-70.572;2023-01-09T03:43:38;93070.53;;;24.31;45.46
74336;BME280;62755;-33.398;-70.572;2023-01-09T03:46:27;93071.78;;;24.41;45.29
74336;BME280;62755;-33.398;-70.572;2023-01-09T03:49:16;93066.31;;;24.30;45.63
74336;BME280;62755;-33.398;-70.572;2023-01-09T03:52:06;93059.28;;;23.85;46.60
74336;BME280;62755;-33.398;-70.572;2023-01-09T03:54:57;93062.56;;;24.33;45.55
74336;BME280;62755;-33.398;-70.572;2023-01-09T03:57:46;93049.38;;;24.26;45.37
74336;BME280;62755;-33.398;-70.572;2023-01-09T04:00:35;93051.34;;;24.20;45.84
74336;BME280;62755;-33.398;-70.572;2023-01-09T04:03:25;93059.56;;;24.26;45.65
74336;BME280;62755;-33.398;-70.572;2023-01-09T04:06:14;93054.84;;;24.26;45.79
74336;BME280;62755;-33.398;-70.572;2023-01-09T04:09:03;93047.63;;;24.34;45.63
74336;BME280;62755;-33.398;-70.572;2023-01-09T04:11:54;93053.84;;;24.40;45.38
74336;BME280;62755;-33.398;-70.572;2023-01-09T04:14:44;93048.34;;;24.40;45.65
74336;BME280;62755;-33.398;-70.572;2023-01-09T04:17:33;93045.13;;;24.20;45.84
74336;BME280;62755;-33.398;-70.572;2023-01-09T04:20:23;93049.38;;;24.15;45.91
74336;BME280;62755;-33.398;-70.572;2023-01-09T04:23:12;93051.38;;;24.09;46.03
74336;BME280;62755;-33.398;-70.572;2023-01-09T04:26:02;93049.38;;;24.15;46.01
74336;BME280;62755;-33.398;-70.572;2023-01-09T04:28:53;93044.38;;;24.30;45.76
74336;BME280;62755;-33.398;-70.572;2023-01-09T04:31:42;93048.09;;;24.27;45.86
74336;BME280;62755;-33.398;-70.572;2023-01-09T04:34:32;93046.59;;;23.93;46.52
74336;BME280;62755;-33.398;-70.572;2023-01-09T04:37:22;93038.34;;;23.82;46.86
74336;BME280;62755;-33.398;-70.572;2023-01-09T04:40:12;93053.28;;;23.70;47.11
74336;BME280;62755;-33.398;-70.572;2023-01-09T04:43:06;93049.28;;;23.71;47.09
74336;BME280;62755;-33.398;-70.572;2023-01-09T04:45:57;93041.31;;;23.62;47.24
74336;BME280;62755;-33.398;-70.572;2023-01-09T04:48:46;93039.03;;;23.44;47.66
74336;BME280;62755;-33.398;-70.572;2023-01-09T04:51:35;93047.31;;;23.66;47.30
74336;BME280;62755;-33.398;-70.572;2023-01-09T04:54:25;93042.28;;;23.42;47.90
74336;BME280;62755;-33.398;-70.572;2023-01-09T04:57:15;93043.31;;;23.67;47.39
74336;BME280;62755;-33.398;-70.572;2023-01-09T05:00:06;93046.28;;;23.58;47.54
74336;BME280;62755;-33.398;-70.572;2023-01-09T05:02:59;93045.84;;;23.87;46.79
74336;BME280;62755;-33.398;-70.572;2023-01-09T05:05:49;93053.81;;;23.85;47.29
74336;BME280;62755;-33.398;-70.572;2023-01-09T05:08:39;93055.28;;;23.86;47.00
74336;BME280;62755;-33.398;-70.572;2023-01-09T05:11:28;93049.28;;;23.60;47.81
74336;BME280;62755;-33.398;-70.572;2023-01-09T05:14:17;93043.19;;;23.23;48.52
74336;BME280;62755;-33.398;-70.572;2023-01-09T05:17:07;93037.06;;;23.44;48.10
74336;BME280;62755;-33.398;-70.572;2023-01-09T05:19:58;93036.56;;;23.57;47.64
74336;BME280;62755;-33.398;-70.572;2023-01-09T05:22:48;93043.50;;;23.36;48.22
74336;BME280;62755;-33.398;-70.572;2023-01-09T05:25:37;93036.31;;;23.55;47.85
74336;BME280;62755;-33.398;-70.572;2023-01-09T05:28:26;93037.31;;;23.52;47.83
74336;BME280;62755;-33.398;-70.572;2023-01-09T05:31:16;93038.34;;;23.71;47.51
74336;BME280;62755;-33.398;-70.572;2023-01-09T05:34:05;92993.63;;;22.56;49.29
74336;BME280;62755;-33.398;-70.572;2023-01-09T05:36:57;93043.34;;;23.03;49.19
74336;BME280;62755;-33.398;-70.572;2023-01-09T05:39:46;93040.13;;;23.10;49.21
74336;BME280;62755;-33.398;-70.572;2023-01-09T05:42:35;93040.63;;;23.03;49.29
74336;BME280;62755;-33.398;-70.572;2023-01-09T05:45:25;93041.09;;;22.96;49.65
74336;BME280;62755;-33.398;-70.572;2023-01-09T05:48:14;93034.22;;;23.17;49.08
74336;BME280;62755;-33.398;-70.572;2023-01-09T05:51:04;93035.56;;;22.85;49.54
74336;BME280;62755;-33.398;-70.572;2023-01-09T05:53:55;93041.28;;;22.87;49.77
74336;BME280;62755;-33.398;-70.572;2023-01-09T05:56:44;93032.81;;;22.85;49.83
74336;BME280;62755;-33.398;-70.572;2023-01-09T05:59:34;93032.00;;;22.67;50.30
74336;BME280;62755;-33.398;-70.572;2023-01-09T06:02:23;93034.25;;;22.69;50.16
74336;BME280;62755;-33.398;-70.572;2023-01-09T06:05:12;93029.78;;;22.35;51.03
74336;BME280;62755;-33.398;-70.572;2023-01-09T06:08:02;93029.25;;;22.62;50.32
74336;BME280;62755;-33.398;-70.572;2023-01-09T06:10:53;93027.97;;;22.57;50.27
74336;BME280;62755;-33.398;-70.572;2023-01-09T06:13:42;93023.06;;;22.73;49.97
74336;BME280;62755;-33.398;-70.572;2023-01-09T06:16:32;93015.13;;;22.75;49.92
74336;BME280;62755;-33.398;-70.572;2023-01-09T06:19:21;93012.97;;;22.47;50.21
74336;BME280;62755;-33.398;-70.572;2023-01-09T06:22:10;93006.97;;;22.43;50.49
74336;BME280;62755;-33.398;-70.572;2023-01-09T06:25:00;93009.91;;;22.77;49.73
74336;BME280;62755;-33.398;-70.572;2023-01-09T06:27:51;92994.28;;;22.83;49.43
74336;BME280;62755;-33.398;-70.572;2023-01-09T06:30:40;93006.72;;;22.84;49.65
74336;BME280;62755;-33.398;-70.572;2023-01-09T06:33:30;93001.06;;;22.98;49.18
74336;BME280;62755;-33.398;-70.572;2023-01-09T06:36:19;93005.28;;;22.94;49.41
74336;BME280;62755;-33.398;-70.572;2023-01-09T06:39:09;92996.06;;;22.86;49.48
74336;BME280;62755;-33.398;-70.572;2023-01-09T06:42:00;92991.81;;;22.85;49.68
74336;BME280;62755;-33.398;-70.572;2023-01-09T06:44:51;92995.97;;;22.75;49.69
74336;BME280;62755;-33.398;-70.572;2023-01-09T06:47:41;92989.22;;;22.64;50.01
74336;BME280;62755;-33.398;-70.572;2023-01-09T06:50:30;92987.25;;;22.70;49.95
74336;BME280;62755;-33.398;-70.572;2023-01-09T06:53:20;92984.53;;;22.70;49.90
74336;BME280;62755;-33.398;-70.572;2023-01-09T06:56:09;92971.38;;;22.75;49.98
74336;BME280;62755;-33.398;-70.572;2023-01-09T06:58:58;92972.88;;;22.76;49.68
74336;BME280;62755;-33.398;-70.572;2023-01-09T07:01:50;92971.34;;;22.63;50.08
74336;BME280;62755;-33.398;-70.572;2023-01-09T07:04:39;92972.56;;;22.62;50.09
74336;BME280;62755;-33.398;-70.572;2023-01-09T07:07:29;92968.34;;;22.61;50.41
74336;BME280;62755;-33.398;-70.572;2023-01-09T07:10:18;92952.44;;;22.18;51.13
74336;BME280;62755;-33.398;-70.572;2023-01-09T07:13:08;92958.84;;;22.09;51.60
74336;BME280;62755;-33.398;-70.572;2023-01-09T07:15:57;92955.50;;;21.94;52.09
74336;BME280;62755;-33.398;-70.572;2023-01-09T07:18:50;92958.75;;;21.67;52.70
74336;BME280;62755;-33.398;-70.572;2023-01-09T07:21:40;92953.94;;;21.82;52.44
74336;BME280;62755;-33.398;-70.572;2023-01-09T07:24:30;92956.03;;;21.98;51.96
74336;BME280;62755;-33.398;-70.572;2023-01-09T07:27:19;92951.47;;;21.84;52.08
74336;BME280;62755;-33.398;-70.572;2023-01-09T07:30:10;92950.84;;;21.69;52.81
74336;BME280;62755;-33.398;-70.572;2023-01-09T07:32:59;92958.44;;;21.59;53.18
74336;BME280;62755;-33.398;-70.572;2023-01-09T07:35:51;92950.06;;;21.68;52.62
74336;BME280;62755;-33.398;-70.572;2023-01-09T07:38:42;92950.75;;;21.58;52.85
74336;BME280;62755;-33.398;-70.572;2023-01-09T07:41:32;92950.66;;;21.47;53.41
74336;BME280;62755;-33.398;-70.572;2023-01-09T07:44:21;92950.03;;;21.63;52.83
74336;BME280;62755;-33.398;-70.572;2023-01-09T07:47:11;92950.69;;;21.52;53.29
74336;BME280;62755;-33.398;-70.572;2023-01-09T07:50:00;92935.53;;;21.46;53.46
74336;BME280;62755;-33.398;-70.572;2023-01-09T07:52:52;92945.41;;;21.43;53.40
74336;BME280;62755;-33.398;-70.572;2023-01-09T07:55:42;92945.84;;;21.62;52.82
74336;BME280;62755;-33.398;-70.572;2023-01-09T07:58:32;92940.25;;;21.51;53.14
74336;BME280;62755;-33.398;-70.572;2023-01-09T08:01:22;92944.25;;;21.50;53.45
74336;BME280;62755;-33.398;-70.572;2023-01-09T08:04:12;92943.19;;;21.42;53.54
74336;BME280;62755;-33.398;-70.572;2023-01-09T08:07:01;92933.97;;;21.39;53.55
74336;BME280;62755;-33.398;-70.572;2023-01-09T08:09:52;92946.34;;;21.66;52.93
74336;BME280;62755;-33.398;-70.572;2023-01-09T08:12:45;92944.41;;;21.72;52.79
74336;BME280;62755;-33.398;-70.572;2023-01-09T08:15:35;92950.91;;;21.80;52.62
74336;BME280;62755;-33.398;-70.572;2023-01-09T08:18:25;92957.53;;;21.99;51.98
74336;BME280;62755;-33.398;-70.572;2023-01-09T08:21:14;92950.34;;;22.02;51.95
74336;BME280;62755;-33.398;-70.572;2023-01-09T08:24:04;92948.16;;;22.11;51.77
74336;BME280;62755;-33.398;-70.572;2023-01-09T08:26:55;92954.63;;;22.08;51.84
74336;BME280;62755;-33.398;-70.572;2023-01-09T08:29:45;92958.97;;;22.31;51.63
74336;BME280;62755;-33.398;-70.572;2023-01-09T08:32:34;92956.63;;;22.13;51.95
74336;BME280;62755;-33.398;-70.572;2023-01-09T08:35:23;92958.72;;;22.29;52.55
74336;BME280;62755;-33.398;-70.572;2023-01-09T08:38:13;92955.44;;;22.25;52.49
74336;BME280;62755;-33.398;-70.572;2023-01-09T08:41:02;92961.66;;;22.20;52.50
74336;BME280;62755;-33.398;-70.572;2023-01-09T08:44:13;92964.13;;;22.18;52.36
74336;BME280;62755;-33.398;-70.572;2023-01-09T08:47:21;92975.84;;;22.30;52.06
74336;BME280;62755;-33.398;-70.572;2023-01-09T08:50:11;92975.63;;;22.33;52.06
74336;BME280;62755;-33.398;-70.572;2023-01-09T08:53:00;92979.34;;;22.30;51.76
74336;BME280;62755;-33.398;-70.572;2023-01-09T08:55:50;92974.19;;;22.43;51.69
74336;BME280;62755;-33.398;-70.572;2023-01-09T08:58:39;92976.13;;;22.37;52.14
74336;BME280;62755;-33.398;-70.572;2023-01-09T09:01:31;92971.47;;;22.43;51.69
74336;BME280;62755;-33.398;-70.572;2023-01-09T09:04:20;92967.53;;;22.13;52.03
74336;BME280;62755;-33.398;-70.572;2023-01-09T09:07:09;92977.97;;;22.09;52.47
74336;BME280;62755;-33.398;-70.572;2023-01-09T09:09:59;92970.75;;;22.06;52.15
74336;BME280;62755;-33.398;-70.572;2023-01-09T09:12:50;92962.81;;;21.77;52.67
74336;BME280;62755;-33.398;-70.572;2023-01-09T09:15:39;92958.44;;;21.85;52.47
74336;BME280;62755;-33.398;-70.572;2023-01-09T09:18:31;92973.84;;;21.88;52.57
74336;BME280;62755;-33.398;-70.572;2023-01-09T09:21:20;92974.97;;;22.07;52.06
74336;BME280;62755;-33.398;-70.572;2023-01-09T09:24:10;92970.78;;;22.12;51.63
74336;BME280;62755;-33.398;-70.572;2023-01-09T09:26:59;92972.31;;;22.18;51.59
74336;BME280;62755;-33.398;-70.572;2023-01-09T09:29:49;92974.97;;;22.07;51.82
74336;BME280;62755;-33.398;-70.572;2023-01-09T09:32:38;92977.88;;;21.98;52.23
74336;BME280;62755;-33.398;-70.572;2023-01-09T09:35:30;92980.19;;;22.05;52.04
74336;BME280;62755;-33.398;-70.572;2023-01-09T09:38:19;92972.63;;;21.89;52.09
74336;BME280;62755;-33.398;-70.572;2023-01-09T09:41:23;92985.06;;;21.96;52.58
74336;BME280;62755;-33.398;-70.572;2023-01-09T09:44:49;92984.56;;;21.66;52.65
74336;BME280;62755;-33.398;-70.572;2023-01-09T09:47:52;92988.97;;;21.32;53.58
74336;BME280;62755;-33.398;-70.572;2023-01-09T09:54:11;92993.56;;;21.21;54.21
74336;BME280;62755;-33.398;-70.572;2023-01-09T09:57:03;92989.06;;;21.18;54.15
74336;BME280;62755;-33.398;-70.572;2023-01-09T09:59:53;92991.78;;;20.97;54.73
74336;BME280;62755;-33.398;-70.572;2023-01-09T10:02:46;92994.09;;;21.25;54.30
74336;BME280;62755;-33.398;-70.572;2023-01-09T10:05:41;92986.13;;;21.47;53.58
74336;BME280;62755;-33.398;-70.572;2023-01-09T10:08:37;92995.28;;;21.44;53.66
74336;BME280;62755;-33.398;-70.572;2023-01-09T10:11:34;93003.06;;;21.31;54.02
74336;BME280;62755;-33.398;-70.572;2023-01-09T10:14:27;93006.59;;;21.37;53.94
74336;BME280;62755;-33.398;-70.572;2023-01-09T10:17:27;92997.22;;;21.38;53.59
74336;BME280;62755;-33.398;-70.572;2023-01-09T10:24:07;93009.28;;;21.57;53.56
74336;BME280;62755;-33.398;-70.572;2023-01-09T10:27:04;93008.78;;;21.33;53.78
74336;BME280;62755;-33.398;-70.572;2023-01-09T10:29:59;93026.69;;;21.14;54.79
74336;BME280;62755;-33.398;-70.572;2023-01-09T10:33:02;93017.50;;;21.37;53.98
74336;BME280;62755;-33.398;-70.572;2023-01-09T10:36:16;93023.66;;;21.06;54.81
74336;BME280;62755;-33.398;-70.572;2023-01-09T10:39:17;93023.03;;;21.17;54.17
74336;BME280;62755;-33.398;-70.572;2023-01-09T10:42:13;93025.59;;;20.85;55.34
74336;BME280;62755;-33.398;-70.572;2023-01-09T10:45:11;93024.25;;;21.16;54.48
74336;BME280;62755;-33.398;-70.572;2023-01-09T10:48:10;93025.94;;;21.13;54.81
74336;BME280;62755;-33.398;-70.572;2023-01-09T10:51:04;93002.31;;;20.84;55.07
74336;BME280;62755;-33.398;-70.572;2023-01-09T10:54:03;93034.06;;;21.08;54.77
74336;BME280;62755;-33.398;-70.572;2023-01-09T10:56:59;93034.47;;;21.00;54.99
74336;BME280;62755;-33.398;-70.572;2023-01-09T10:59:52;93024.78;;;21.20;54.92
74336;BME280;62755;-33.398;-70.572;2023-01-09T11:02:42;93033.53;;;21.49;54.19
74336;BME280;62755;-33.398;-70.572;2023-01-09T11:05:32;93018.78;;;21.16;54.70
74336;BME280;62755;-33.398;-70.572;2023-01-09T11:08:25;93027.34;;;21.29;54.85
74336;BME280;62755;-33.398;-70.572;2023-01-09T11:11:31;93036.75;;;21.48;54.09
74336;BME280;62755;-33.398;-70.572;2023-01-09T11:14:25;93028.66;;;21.59;53.64
74336;BME280;62755;-33.398;-70.572;2023-01-09T11:17:20;93034.75;;;21.23;54.52
74336;BME280;62755;-33.398;-70.572;2023-01-09T11:20:15;93034.31;;;21.30;54.50
74336;BME280;62755;-33.398;-70.572;2023-01-09T11:23:28;93027.59;;;21.51;53.93
74336;BME280;62755;-33.398;-70.572;2023-01-09T11:26:22;93027.75;;;21.42;54.49
74336;BME280;62755;-33.398;-70.572;2023-01-09T11:29:13;93030.91;;;21.60;53.93
74336;BME280;62755;-33.398;-70.572;2023-01-09T11:32:15;92996.63;;;21.54;53.63
74336;BME280;62755;-33.398;-70.572;2023-01-09T11:35:20;93036.56;;;21.31;54.54
74336;BME280;62755;-33.398;-70.572;2023-01-09T11:38:14;93027.25;;;21.95;53.25
74336;BME280;62755;-33.398;-70.572;2023-01-09T11:41:04;93019.53;;;21.88;53.30
74336;BME280;62755;-33.398;-70.572;2023-01-09T11:43:55;93027.16;;;21.58;53.78
74336;BME280;62755;-33.398;-70.572;2023-01-09T11:46:46;93023.19;;;21.59;53.70
74336;BME280;62755;-33.398;-70.572;2023-01-09T11:49:37;93023.28;;;21.70;53.09
74336;BME280;62755;-33.398;-70.572;2023-01-09T11:52:26;93013.03;;;21.85;53.06
74336;BME280;62755;-33.398;-70.572;2023-01-09T11:55:17;93023.09;;;21.99;52.74
74336;BME280;62755;-33.398;-70.572;2023-01-09T11:58:11;93012.44;;;22.01;52.63
74336;BME280;62755;-33.398;-70.572;2023-01-09T12:01:12;93012.75;;;22.14;52.25
74336;BME280;62755;-33.398;-70.572;2023-01-09T12:04:20;93023.63;;;22.45;51.43
74336;BME280;62755;-33.398;-70.572;2023-01-09T12:07:40;93013.44;;;22.40;51.18
74336;BME280;62755;-33.398;-70.572;2023-01-09T12:17:26;93014.41;;;22.74;49.97
74336;BME280;62755;-33.398;-70.572;2023-01-09T12:20:30;93014.59;;;22.70;50.82
74336;BME280;62755;-33.398;-70.572;2023-01-09T12:23:31;93004.50;;;22.45;51.82
74336;BME280;62755;-33.398;-70.572;2023-01-09T12:26:30;93014.25;;;22.52;51.79
74336;BME280;62755;-33.398;-70.572;2023-01-09T12:29:33;93006.03;;;22.46;51.78
74336;BME280;62755;-33.398;-70.572;2023-01-09T12:32:37;93008.16;;;22.31;52.23
74336;BME280;62755;-33.398;-70.572;2023-01-09T12:35:34;93009.91;;;22.34;52.49
74336;BME280;62755;-33.398;-70.572;2023-01-09T12:38:40;93005.94;;;22.35;52.27
74336;BME280;62755;-33.398;-70.572;2023-01-09T12:41:46;92999.81;;;22.09;52.47
74336;BME280;62755;-33.398;-70.572;2023-01-09T12:44:52;93003.91;;;22.25;52.56
74336;BME280;62755;-33.398;-70.572;2023-01-09T12:47:45;93005.09;;;22.18;52.58
74336;BME280;62755;-33.398;-70.572;2023-01-09T12:50:55;93005.88;;;22.24;52.37
74336;BME280;62755;-33.398;-70.572;2023-01-09T12:53:51;92986.34;;;22.00;52.85
74336;BME280;62755;-33.398;-70.572;2023-01-09T12:56:49;93005.28;;;22.09;52.82
74336;BME280;62755;-33.398;-70.572;2023-01-09T12:59:45;93002.34;;;22.18;52.71
74336;BME280;62755;-33.398;-70.572;2023-01-09T13:02:42;93005.59;;;22.17;52.86
74336;BME280;62755;-33.398;-70.572;2023-01-09T13:05:35;93006.47;;;22.39;52.40
74336;BME280;62755;-33.398;-70.572;2023-01-09T13:08:30;93002.88;;;22.64;51.67
74336;BME280;62755;-33.398;-70.572;2023-01-09T13:11:27;92999.50;;;22.38;52.08
74336;BME280;62755;-33.398;-70.572;2023-01-09T13:14:22;92999.19;;;22.62;51.55
74336;BME280;62755;-33.398;-70.572;2023-01-09T13:17:17;92992.19;;;22.61;51.66
74336;BME280;62755;-33.398;-70.572;2023-01-09T13:20:18;92998.38;;;22.56;51.58
74336;BME280;62755;-33.398;-70.572;2023-01-09T13:23:10;92995.22;;;22.68;51.53
74336;BME280;62755;-33.398;-70.572;2023-01-09T13:26:04;92998.28;;;22.82;51.30
74336;BME280;62755;-33.398;-70.572;2023-01-09T13:28:57;92985.31;;;22.77;50.79
74336;BME280;62755;-33.398;-70.572;2023-01-09T13:32:02;93001.28;;;22.95;50.75
74336;BME280;62755;-33.398;-70.572;2023-01-09T13:34:55;93004.81;;;23.01;50.77
74336;BME280;62755;-33.398;-70.572;2023-01-09T13:37:50;93000.31;;;22.98;50.30
74336;BME280;62755;-33.398;-70.572;2023-01-09T13:40:41;93004.81;;;23.12;50.41
74336;BME280;62755;-33.398;-70.572;2023-01-09T13:43:53;93002.84;;;23.07;50.53
74336;BME280;62755;-33.398;-70.572;2023-01-09T13:46:47;93010.16;;;23.32;49.97
74336;BME280;62755;-33.398;-70.572;2023-01-09T13:50:04;92995.66;;;23.26;50.03
74336;BME280;62755;-33.398;-70.572;2023-01-09T13:53:43;93014.56;;;23.29;50.09
74336;BME280;62755;-33.398;-70.572;2023-01-09T13:56:32;93020.72;;;23.08;50.44
74336;BME280;62755;-33.398;-70.572;2023-01-09T13:59:42;93017.28;;;23.13;50.40
74336;BME280;62755;-33.398;-70.572;2023-01-09T14:02:55;93009.16;;;23.35;50.07
74336;BME280;62755;-33.398;-70.572;2023-01-09T14:06:15;93013.16;;;23.45;49.67
74336;BME280;62755;-33.398;-70.572;2023-01-09T14:09:17;93010.66;;;23.47;49.63
74336;BME280;62755;-33.398;-70.572;2023-01-09T14:12:07;93015.88;;;23.45;49.55
74336;BME280;62755;-33.398;-70.572;2023-01-09T14:14:58;93012.91;;;23.43;49.53
74336;BME280;62755;-33.398;-70.572;2023-01-09T14:18:00;93014.94;;;23.70;49.30
74336;BME280;62755;-33.398;-70.572;2023-01-09T14:20:55;93019.16;;;23.82;48.85
74336;BME280;62755;-33.398;-70.572;2023-01-09T14:23:54;93021.94;;;23.93;48.58
74336;BME280;62755;-33.398;-70.572;2023-01-09T14:26:48;93018.97;;;24.13;48.33
74336;BME280;62755;-33.398;-70.572;2023-01-09T14:29:47;93020.69;;;24.38;47.78
74336;BME280;62755;-33.398;-70.572;2023-01-09T14:32:43;93020.44;;;24.36;47.85
74336;BME280;62755;-33.398;-70.572;2023-01-09T14:35:41;93017.47;;;24.12;48.06
74336;BME280;62755;-33.398;-70.572;2023-01-09T14:38:34;93017.47;;;24.01;48.18
74336;BME280;62755;-33.398;-70.572;2023-01-09T14:41:28;93014.50;;;24.10;48.18
74336;BME280;62755;-33.398;-70.572;2023-01-09T14:44:45;93001.78;;;24.18;48.18
74336;BME280;62755;-33.398;-70.572;2023-01-09T14:47:38;93014.97;;;24.25;47.63
74336;BME280;62755;-33.398;-70.572;2023-01-09T14:50:32;93005.00;;;24.33;47.39
74336;BME280;62755;-33.398;-70.572;2023-01-09T14:53:26;93009.50;;;24.36;47.55
74336;BME280;62755;-33.398;-70.572;2023-01-09T14:56:28;93005.47;;;24.49;47.56
74336;BME280;62755;-33.398;-70.572;2023-01-09T14:59:17;93005.97;;;24.53;47.30
74336;BME280;62755;-33.398;-70.572;2023-01-09T15:02:09;93007.19;;;24.68;47.26
74336;BME280;62755;-33.398;-70.572;2023-01-09T15:05:00;93002.91;;;24.84;46.40